sensor_id;sensor_type;location;lat;lon;timestamp;temperature;humidity
3644;DHT22;1838;50.742;7.158;2024-02-26T00:00:40;7.20;99.90
3644;DHT22;1838;50.742;7.158;2024-02-26T00:03:06;7.20;99.90
3644;DHT22;1838;50.742;7.158;2024-02-26T00:05:31;7.20;99.90
3644;DHT22;1838;50.742;7.158;2024-02-26T00:07:57;7.10;99.90
3644;DHT22;1838;50.742;7.158;2024-02-26T00:10:22;7.10;99.90
3644;DHT22;1838;50.742;7.158;2024-02-26T00:12:48;7.20;99.90
3644;DHT22;1838;50.742;7.158;2024-02-26T00:15:13;7.10;99.90
3644;DHT22;1838;50.742;7.158;2024-02-26T00:17:39;7.10;99.90
3644;DHT22;1838;50.742;7.158;2024-02-26T00:20:06;7.10;99.90
3644;DHT22;1838;50.742;7.158;2024-02-26T00:22:35;7.10;99.90
3644;DHT22;1838;50.742;7.158;2024-02-26T00:25:00;7.20;99.90
3644;DHT22;1838;50.742;7.158;2024-02-26T00:27:26;7.20;99.90
3644;DHT22;1838;50.742;7.158;2024-02-26T00:29:52;7.30;99.90
3644;DHT22;1838;50.742;7.158;2024-02-26T00:32:17;7.30;99.90
3644;DHT22;1838;50.742;7.158;2024-02-26T00:34:43;7.40;99.90
3644;DHT22;1838;50.742;7.158;2024-02-26T00:37:09;7.40;99.90
3644;DHT22;1838;50.742;7.158;2024-02-26T00:39:34;7.40;99.90
3644;DHT22;1838;50.742;7.158;2024-02-26T00:42:00;7.40;99.90
3644;DHT22;1838;50.742;7.158;2024-02-26T00:44:25;7.40;99.90
3644;DHT22;1838;50.742;7.158;2024-02-26T00:46:51;7.40;99.90
3644;DHT22;1838;50.742;7.158;2024-02-26T00:49:16;7.50;99.90
3644;DHT22;1838;50.742;7.158;2024-02-26T00:51:42;7.40;99.90
3644;DHT22;1838;50.742;7.158;2024-02-26T00:54:07;7.40;99.90
3644;DHT22;1838;50.742;7.158;2024-02-26T00:56:33;7.40;99.90
3644;DHT22;1838;50.742;7.158;2024-02-26T00:58:58;7.40;99.90
3644;DHT22;1838;50.742;7.158;2024-02-26T01:01:24;7.30;99.90
3644;DHT22;1838;50.742;7.158;2024-02-26T01:03:49;7.20;99.90
3644;DHT22;1838;50.742;7.158;2024-02-26T01:06:15;7.20;99.90
3644;DHT22;1838;50.742;7.158;2024-02-26T01:08:41;7.20;99.90
3644;DHT22;1838;50.742;7.158;2024-02-26T01:11:06;7.20;99.90
3644;DHT22;1838;50.742;7.158;2024-02-26T01:13:32;7.10;99.90
3644;DHT22;1838;50.742;7.158;2024-02-26T01:15:58;7.10;99.90
3644;DHT22;1838;50.742;7.158;2024-02-26T01:18:24;7.10;99.90
3644;DHT22;1838;50.742;7.158;2024-02-26T01:20:50;7.10;99.90
3644;DHT22;1838;50.742;7.158;2024-02-26T01:23:15;7.10;99.90
3644;DHT22;1838;50.742;7.158;2024-02-26T01:25:41;7.00;99.90
3644;DHT22;1838;50.742;7.158;2024-02-26T01:28:08;7.00;99.90
3644;DHT22;1838;50.742;7.158;2024-02-26T01:30:33;7.00;99.90
3644;DHT22;1838;50.742;7.158;2024-02-26T01:32:59;7.00;99.90
3644;DHT22;1838;50.742;7.158;2024-02-26T01:35:24;7.00;99.90
3644;DHT22;1838;50.742;7.158;2024-02-26T01:37:50;7.00;99.90
3644;DHT22;1838;50.742;7.158;2024-02-26T01:40:15;7.00;99.90
3644;DHT22;1838;50.742;7.158;2024-02-26T01:42:45;7.00;99.90
3644;DHT22;1838;50.742;7.158;2024-02-26T01:45:15;7.00;99.90
3644;DHT22;1838;50.742;7.158;2024-02-26T01:47:53;7.00;99.90
3644;DHT22;1838;50.742;7.158;2024-02-26T01:50:19;7.00;99.90
3644;DHT22;1838;50.742;7.158;2024-02-26T01:52:50;6.90;99.90
3644;DHT22;1838;50.742;7.158;2024-02-26T01:55:17;6.90;99.90
3644;DHT22;1838;50.742;7.158;2024-02-26T01:57:44;6.90;99.90
3644;DHT22;1838;50.742;7.158;2024-02-26T02:00:11;6.90;99.90
3644;DHT22;1838;50.742;7.158;2024-02-26T02:02:37;6.90;99.90
3644;DHT22;1838;50.742;7.158;2024-02-26T02:05:05;6.90;99.90
3644;DHT22;1838;50.742;7.158;2024-02-26T02:07:31;6.90;99.90
3644;DHT22;1838;50.742;7.158;2024-02-26T02:09:57;6.80;99.90
3644;DHT22;1838;50.742;7.158;2024-02-26T02:12:22;6.80;99.90
3644;DHT22;1838;50.742;7.158;2024-02-26T02:14:48;6.80;99.90
3644;DHT22;1838;50.742;7.158;2024-02-26T02:17:13;6.80;99.90
3644;DHT22;1838;50.742;7.158;2024-02-26T02:19:39;6.80;99.90
3644;DHT22;1838;50.742;7.158;2024-02-26T02:22:04;6.80;99.90
3644;DHT22;1838;50.742;7.158;2024-02-26T02:24:30;6.80;99.90
3644;DHT22;1838;50.742;7.158;2024-02-26T02:26:55;6.80;99.90
3644;DHT22;1838;50.742;7.158;2024-02-26T02:29:21;6.80;99.90
3644;DHT22;1838;50.742;7.158;2024-02-26T02:31:47;6.80;99.90
3644;DHT22;1838;50.742;7.158;2024-02-26T02:34:13;6.80;99.90
3644;DHT22;1838;50.742;7.158;2024-02-26T02:36:51;6.80;99.90
3644;DHT22;1838;50.742;7.158;2024-02-26T02:39:17;6.80;99.90
3644;DHT22;1838;50.742;7.158;2024-02-26T02:41:42;6.80;99.90
3644;DHT22;1838;50.742;7.158;2024-02-26T02:44:08;6.80;99.90
3644;DHT22;1838;50.742;7.158;2024-02-26T02:46:34;6.80;99.90
3644;DHT22;1838;50.742;7.158;2024-02-26T02:49:00;6.80;99.90
3644;DHT22;1838;50.742;7.158;2024-02-26T02:51:26;6.80;99.90
3644;DHT22;1838;50.742;7.158;2024-02-26T02:53:51;6.80;99.90
3644;DHT22;1838;50.742;7.158;2024-02-26T02:56:17;6.80;99.90
3644;DHT22;1838;50.742;7.158;2024-02-26T02:58:43;6.80;99.90
3644;DHT22;1838;50.742;7.158;2024-02-26T03:01:08;6.80;99.90
3644;DHT22;1838;50.742;7.158;2024-02-26T03:03:34;6.70;99.90
3644;DHT22;1838;50.742;7.158;2024-02-26T03:05:59;6.70;99.90
3644;DHT22;1838;50.742;7.158;2024-02-26T03:08:25;6.70;99.90
3644;DHT22;1838;50.742;7.158;2024-02-26T03:10:51;6.70;99.90
3644;DHT22;1838;50.742;7.158;2024-02-26T03:13:17;6.70;99.90
3644;DHT22;1838;50.742;7.158;2024-02-26T03:15:42;6.80;99.90
3644;DHT22;1838;50.742;7.158;2024-02-26T03:18:08;6.80;99.90
3644;DHT22;1838;50.742;7.158;2024-02-26T03:20:33;6.80;99.90
3644;DHT22;1838;50.742;7.158;2024-02-26T03:22:59;6.80;99.90
3644;DHT22;1838;50.742;7.158;2024-02-26T03:25:24;6.80;99.90
3644;DHT22;1838;50.742;7.158;2024-02-26T03:27:50;6.90;99.90
3644;DHT22;1838;50.742;7.158;2024-02-26T03:30:15;6.90;99.90
3644;DHT22;1838;50.742;7.158;2024-02-26T03:32:41;6.80;99.90
3644;DHT22;1838;50.742;7.158;2024-02-26T03:35:07;6.80;99.90
3644;DHT22;1838;50.742;7.158;2024-02-26T03:37:33;6.80;99.90
3644;DHT22;1838;50.742;7.158;2024-02-26T03:39:59;6.80;99.90
3644;DHT22;1838;50.742;7.158;2024-02-26T03:42:26;6.80;99.90
3644;DHT22;1838;50.742;7.158;2024-02-26T03:44:52;6.70;99.90
3644;DHT22;1838;50.742;7.158;2024-02-26T03:47:17;6.70;99.90
3644;DHT22;1838;50.742;7.158;2024-02-26T03:49:43;6.70;99.90
3644;DHT22;1838;50.742;7.158;2024-02-26T03:52:08;6.80;99.90
3644;DHT22;1838;50.742;7.158;2024-02-26T03:54:34;6.70;99.90
3644;DHT22;1838;50.742;7.158;2024-02-26T03:56:59;6.70;99.90
3644;DHT22;1838;50.742;7.158;2024-02-26T03:59:26;6.70;99.90
3644;DHT22;1838;50.742;7.158;2024-02-26T04:01:51;6.70;99.90
3644;DHT22;1838;50.742;7.158;2024-02-26T04:04:17;6.70;99.90
3644;DHT22;1838;50.742;7.158;2024-02-26T04:06:46;6.70;99.90
3644;DHT22;1838;50.742;7.158;2024-02-26T04:09:14;6.70;99.90
3644;DHT22;1838;50.742;7.158;2024-02-26T04:11:39;6.70;99.90
3644;DHT22;1838;50.742;7.158;2024-02-26T04:14:05;6.70;99.90
3644;DHT22;1838;50.742;7.158;2024-02-26T04:16:34;6.70;99.90
3644;DHT22;1838;50.742;7.158;2024-02-26T04:18:59;6.80;99.90
3644;DHT22;1838;50.742;7.158;2024-02-26T04:21:25;6.80;99.90
3644;DHT22;1838;50.742;7.158;2024-02-26T04:23:50;6.90;99.90
3644;DHT22;1838;50.742;7.158;2024-02-26T04:26:16;6.90;99.90
3644;DHT22;1838;50.742;7.158;2024-02-26T04:28:42;6.90;99.90
3644;DHT22;1838;50.742;7.158;2024-02-26T04:31:07;6.90;99.90
3644;DHT22;1838;50.742;7.158;2024-02-26T04:33:34;6.90;99.90
3644;DHT22;1838;50.742;7.158;2024-02-26T04:36:00;6.90;99.90
3644;DHT22;1838;50.742;7.158;2024-02-26T04:38:25;6.90;99.90
3644;DHT22;1838;50.742;7.158;2024-02-26T04:40:51;7.00;99.90
3644;DHT22;1838;50.742;7.158;2024-02-26T04:43:16;7.00;99.90
3644;DHT22;1838;50.742;7.158;2024-02-26T04:45:43;7.00;99.90
3644;DHT22;1838;50.742;7.158;2024-02-26T04:48:09;7.00;99.90
3644;DHT22;1838;50.742;7.158;2024-02-26T04:50:34;6.90;99.90
3644;DHT22;1838;50.742;7.158;2024-02-26T04:53:00;6.90;99.90
3644;DHT22;1838;50.742;7.158;2024-02-26T04:55:25;6.80;99.90
3644;DHT22;1838;50.742;7.158;2024-02-26T04:57:50;6.80;99.90
3644;DHT22;1838;50.742;7.158;2024-02-26T05:00:16;6.60;99.90
3644;DHT22;1838;50.742;7.158;2024-02-26T05:02:42;6.60;99.90
3644;DHT22;1838;50.742;7.158;2024-02-26T05:05:08;6.60;99.90
3644;DHT22;1838;50.742;7.158;2024-02-26T05:07:38;6.60;99.90
3644;DHT22;1838;50.742;7.158;2024-02-26T05:10:04;6.60;99.90
3644;DHT22;1838;50.742;7.158;2024-02-26T05:12:30;6.60;99.90
3644;DHT22;1838;50.742;7.158;2024-02-26T05:14:56;6.70;99.90
3644;DHT22;1838;50.742;7.158;2024-02-26T05:17:22;6.70;99.90
3644;DHT22;1838;50.742;7.158;2024-02-26T05:19:50;6.70;99.90
3644;DHT22;1838;50.742;7.158;2024-02-26T05:22:15;6.70;99.90
3644;DHT22;1838;50.742;7.158;2024-02-26T05:24:42;6.70;99.90
3644;DHT22;1838;50.742;7.158;2024-02-26T05:27:07;6.80;99.90
3644;DHT22;1838;50.742;7.158;2024-02-26T05:29:32;6.80;99.90
3644;DHT22;1838;50.742;7.158;2024-02-26T05:31:58;6.80;99.90
3644;DHT22;1838;50.742;7.158;2024-02-26T05:34:24;6.80;99.90
3644;DHT22;1838;50.742;7.158;2024-02-26T05:36:49;6.70;99.90
3644;DHT22;1838;50.742;7.158;2024-02-26T05:39:15;6.70;99.90
3644;DHT22;1838;50.742;7.158;2024-02-26T05:41:41;6.70;99.90
3644;DHT22;1838;50.742;7.158;2024-02-26T05:44:08;6.70;99.90
3644;DHT22;1838;50.742;7.158;2024-02-26T05:46:35;6.70;99.90
3644;DHT22;1838;50.742;7.158;2024-02-26T05:49:01;6.70;99.90
3644;DHT22;1838;50.742;7.158;2024-02-26T05:51:26;6.70;99.90
3644;DHT22;1838;50.742;7.158;2024-02-26T05:53:52;6.80;99.90
3644;DHT22;1838;50.742;7.158;2024-02-26T05:56:23;6.70;99.90
3644;DHT22;1838;50.742;7.158;2024-02-26T05:58:48;6.70;99.90
3644;DHT22;1838;50.742;7.158;2024-02-26T06:01:16;6.70;99.90
3644;DHT22;1838;50.742;7.158;2024-02-26T06:03:42;6.60;99.90
3644;DHT22;1838;50.742;7.158;2024-02-26T06:06:08;6.60;99.90
3644;DHT22;1838;50.742;7.158;2024-02-26T06:08:33;6.60;99.90
3644;DHT22;1838;50.742;7.158;2024-02-26T06:10:59;6.60;99.90
3644;DHT22;1838;50.742;7.158;2024-02-26T06:13:24;6.60;99.90
3644;DHT22;1838;50.742;7.158;2024-02-26T06:15:50;6.60;99.90
3644;DHT22;1838;50.742;7.158;2024-02-26T06:18:15;6.60;99.90
3644;DHT22;1838;50.742;7.158;2024-02-26T06:20:41;6.60;99.90
3644;DHT22;1838;50.742;7.158;2024-02-26T06:23:07;6.50;99.90
3644;DHT22;1838;50.742;7.158;2024-02-26T06:25:32;6.50;99.90
3644;DHT22;1838;50.742;7.158;2024-02-26T06:27:58;6.40;99.90
3644;DHT22;1838;50.742;7.158;2024-02-26T06:30:23;6.40;99.90
3644;DHT22;1838;50.742;7.158;2024-02-26T06:32:49;6.40;99.90
3644;DHT22;1838;50.742;7.158;2024-02-26T06:35:14;6.40;99.90
3644;DHT22;1838;50.742;7.158;2024-02-26T06:37:40;6.40;99.90
3644;DHT22;1838;50.742;7.158;2024-02-26T06:40:06;6.30;99.90
3644;DHT22;1838;50.742;7.158;2024-02-26T06:42:32;6.30;99.90
3644;DHT22;1838;50.742;7.158;2024-02-26T06:44:58;6.30;99.90
3644;DHT22;1838;50.742;7.158;2024-02-26T06:47:24;6.30;99.90
3644;DHT22;1838;50.742;7.158;2024-02-26T06:49:49;6.30;99.90
3644;DHT22;1838;50.742;7.158;2024-02-26T06:52:15;6.30;99.90
3644;DHT22;1838;50.742;7.158;2024-02-26T06:54:40;6.30;99.90
3644;DHT22;1838;50.742;7.158;2024-02-26T06:57:06;6.30;99.90
3644;DHT22;1838;50.742;7.158;2024-02-26T06:59:32;6.40;99.90
3644;DHT22;1838;50.742;7.158;2024-02-26T07:01:57;6.30;99.90
3644;DHT22;1838;50.742;7.158;2024-02-26T07:04:23;6.30;99.90
3644;DHT22;1838;50.742;7.158;2024-02-26T07:06:49;6.30;99.90
3644;DHT22;1838;50.742;7.158;2024-02-26T07:09:14;6.30;99.90
3644;DHT22;1838;50.742;7.158;2024-02-26T07:11:40;6.30;99.90
3644;DHT22;1838;50.742;7.158;2024-02-26T07:14:08;6.30;99.90
3644;DHT22;1838;50.742;7.158;2024-02-26T07:16:34;6.30;99.90
3644;DHT22;1838;50.742;7.158;2024-02-26T07:18:59;6.30;99.90
3644;DHT22;1838;50.742;7.158;2024-02-26T07:21:25;6.20;99.90
3644;DHT22;1838;50.742;7.158;2024-02-26T07:23:50;6.20;99.90
3644;DHT22;1838;50.742;7.158;2024-02-26T07:26:16;6.20;99.90
3644;DHT22;1838;50.742;7.158;2024-02-26T07:28:43;6.20;99.90
3644;DHT22;1838;50.742;7.158;2024-02-26T07:31:09;6.20;99.90
3644;DHT22;1838;50.742;7.158;2024-02-26T07:33:34;6.20;99.90
3644;DHT22;1838;50.742;7.158;2024-02-26T07:36:00;6.20;99.90
3644;DHT22;1838;50.742;7.158;2024-02-26T07:38:25;6.20;99.90
3644;DHT22;1838;50.742;7.158;2024-02-26T07:40:51;6.10;99.90
3644;DHT22;1838;50.742;7.158;2024-02-26T07:43:16;6.10;99.90
3644;DHT22;1838;50.742;7.158;2024-02-26T07:45:42;6.10;99.90
3644;DHT22;1838;50.742;7.158;2024-02-26T07:48:08;6.10;99.90
3644;DHT22;1838;50.742;7.158;2024-02-26T07:50:33;6.10;99.90
3644;DHT22;1838;50.742;7.158;2024-02-26T07:52:59;6.10;99.90
3644;DHT22;1838;50.742;7.158;2024-02-26T07:55:24;6.10;99.90
3644;DHT22;1838;50.742;7.158;2024-02-26T07:57:50;6.10;99.90
3644;DHT22;1838;50.742;7.158;2024-02-26T08:00:15;6.10;99.90
3644;DHT22;1838;50.742;7.158;2024-02-26T08:02:42;6.10;99.90
3644;DHT22;1838;50.742;7.158;2024-02-26T08:05:08;6.10;99.90
3644;DHT22;1838;50.742;7.158;2024-02-26T08:07:34;6.10;99.90
3644;DHT22;1838;50.742;7.158;2024-02-26T08:09:59;6.10;99.90
3644;DHT22;1838;50.742;7.158;2024-02-26T08:12:25;6.10;99.90
3644;DHT22;1838;50.742;7.158;2024-02-26T08:14:51;6.10;99.90
3644;DHT22;1838;50.742;7.158;2024-02-26T08:17:16;6.10;99.90
3644;DHT22;1838;50.742;7.158;2024-02-26T08:19:42;6.10;99.90
3644;DHT22;1838;50.742;7.158;2024-02-26T08:22:07;6.10;99.90
3644;DHT22;1838;50.742;7.158;2024-02-26T08:24:34;6.10;99.90
3644;DHT22;1838;50.742;7.158;2024-02-26T08:27:00;6.10;99.90
3644;DHT22;1838;50.742;7.158;2024-02-26T08:29:25;6.10;99.90
3644;DHT22;1838;50.742;7.158;2024-02-26T08:31:51;6.10;99.90
3644;DHT22;1838;50.742;7.158;2024-02-26T08:34:16;6.10;99.90
3644;DHT22;1838;50.742;7.158;2024-02-26T08:36:42;6.10;99.90
3644;DHT22;1838;50.742;7.158;2024-02-26T08:39:08;6.10;99.90
3644;DHT22;1838;50.742;7.158;2024-02-26T08:41:34;6.10;99.90
3644;DHT22;1838;50.742;7.158;2024-02-26T08:44:00;6.10;99.90
3644;DHT22;1838;50.742;7.158;2024-02-26T08:46:25;6.20;99.90
3644;DHT22;1838;50.742;7.158;2024-02-26T08:48:50;6.10;99.90
3644;DHT22;1838;50.742;7.158;2024-02-26T08:51:16;6.20;99.90
3644;DHT22;1838;50.742;7.158;2024-02-26T08:53:42;6.10;99.90
3644;DHT22;1838;50.742;7.158;2024-02-26T08:56:07;6.10;99.90
3644;DHT22;1838;50.742;7.158;2024-02-26T08:58:33;6.10;99.90
3644;DHT22;1838;50.742;7.158;2024-02-26T09:00:58;6.10;99.90
3644;DHT22;1838;50.742;7.158;2024-02-26T09:03:24;6.10;99.90
3644;DHT22;1838;50.742;7.158;2024-02-26T09:05:49;6.10;99.90
3644;DHT22;1838;50.742;7.158;2024-02-26T09:08:15;6.10;99.90
3644;DHT22;1838;50.742;7.158;2024-02-26T09:10:41;6.10;99.90
3644;DHT22;1838;50.742;7.158;2024-02-26T09:13:06;6.10;99.90
3644;DHT22;1838;50.742;7.158;2024-02-26T09:15:32;6.10;99.90
3644;DHT22;1838;50.742;7.158;2024-02-26T09:17:58;6.10;99.90
3644;DHT22;1838;50.742;7.158;2024-02-26T09:20:23;6.10;99.90
3644;DHT22;1838;50.742;7.158;2024-02-26T09:22:49;6.10;99.90
3644;DHT22;1838;50.742;7.158;2024-02-26T09:25:16;6.10;99.90
3644;DHT22;1838;50.742;7.158;2024-02-26T09:27:42;6.10;99.90
3644;DHT22;1838;50.742;7.158;2024-02-26T09:30:12;6.10;99.90
3644;DHT22;1838;50.742;7.158;2024-02-26T09:32:38;6.10;99.90
3644;DHT22;1838;50.742;7.158;2024-02-26T09:35:05;6.20;99.90
3644;DHT22;1838;50.742;7.158;2024-02-26T09:37:30;6.20;99.90
3644;DHT22;1838;50.742;7.158;2024-02-26T09:39:56;6.20;99.90
3644;DHT22;1838;50.742;7.158;2024-02-26T09:42:27;6.20;99.90
3644;DHT22;1838;50.742;7.158;2024-02-26T09:44:56;6.30;99.90
3644;DHT22;1838;50.742;7.158;2024-02-26T09:47:26;6.30;99.90
3644;DHT22;1838;50.742;7.158;2024-02-26T09:49:54;6.20;99.90
3644;DHT22;1838;50.742;7.158;2024-02-26T09:52:21;6.30;99.90
3644;DHT22;1838;50.742;7.158;2024-02-26T09:54:48;6.30;99.90
3644;DHT22;1838;50.742;7.158;2024-02-26T09:57:15;6.40;99.90
3644;DHT22;1838;50.742;7.158;2024-02-26T09:59:43;6.40;99.90
3644;DHT22;1838;50.742;7.158;2024-02-26T10:02:12;6.40;99.90
3644;DHT22;1838;50.742;7.158;2024-02-26T10:04:39;6.40;99.90
3644;DHT22;1838;50.742;7.158;2024-02-26T10:07:10;6.40;99.90
3644;DHT22;1838;50.742;7.158;2024-02-26T10:09:36;6.50;99.90
3644;DHT22;1838;50.742;7.158;2024-02-26T10:12:02;6.50;99.90
3644;DHT22;1838;50.742;7.158;2024-02-26T10:14:28;6.50;99.90
3644;DHT22;1838;50.742;7.158;2024-02-26T10:16:54;6.50;99.90
3644;DHT22;1838;50.742;7.158;2024-02-26T10:19:29;6.60;99.90
3644;DHT22;1838;50.742;7.158;2024-02-26T10:21:59;6.60;99.90
3644;DHT22;1838;50.742;7.158;2024-02-26T10:24:26;6.70;99.90
3644;DHT22;1838;50.742;7.158;2024-02-26T10:26:55;6.70;99.90
3644;DHT22;1838;50.742;7.158;2024-02-26T10:29:23;6.80;99.90
3644;DHT22;1838;50.742;7.158;2024-02-26T10:31:50;6.90;99.90
3644;DHT22;1838;50.742;7.158;2024-02-26T10:34:16;6.90;99.90
3644;DHT22;1838;50.742;7.158;2024-02-26T10:36:42;7.00;99.90
3644;DHT22;1838;50.742;7.158;2024-02-26T10:39:09;7.00;99.90
3644;DHT22;1838;50.742;7.158;2024-02-26T10:41:35;7.10;99.90
3644;DHT22;1838;50.742;7.158;2024-02-26T10:44:00;7.00;99.90
3644;DHT22;1838;50.742;7.158;2024-02-26T10:46:27;7.00;99.90
3644;DHT22;1838;50.742;7.158;2024-02-26T10:48:53;7.10;99.90
3644;DHT22;1838;50.742;7.158;2024-02-26T10:51:29;7.10;99.90
3644;DHT22;1838;50.742;7.158;2024-02-26T10:53:58;7.10;99.90
3644;DHT22;1838;50.742;7.158;2024-02-26T10:56:27;7.10;99.90
3644;DHT22;1838;50.742;7.158;2024-02-26T10:58:57;7.20;99.90
3644;DHT22;1838;50.742;7.158;2024-02-26T11:01:24;7.30;99.90
3644;DHT22;1838;50.742;7.158;2024-02-26T11:03:51;7.30;99.90
3644;DHT22;1838;50.742;7.158;2024-02-26T11:06:21;7.30;99.90
3644;DHT22;1838;50.742;7.158;2024-02-26T11:08:53;7.40;99.90
3644;DHT22;1838;50.742;7.158;2024-02-26T11:11:20;7.40;99.90
3644;DHT22;1838;50.742;7.158;2024-02-26T11:13:47;7.40;99.90
3644;DHT22;1838;50.742;7.158;2024-02-26T11:16:20;7.40;99.90
3644;DHT22;1838;50.742;7.158;2024-02-26T11:18:47;7.40;99.90
3644;DHT22;1838;50.742;7.158;2024-02-26T11:21:16;7.40;99.90
3644;DHT22;1838;50.742;7.158;2024-02-26T11:23:42;7.40;99.90
3644;DHT22;1838;50.742;7.158;2024-02-26T11:26:09;7.40;99.90
3644;DHT22;1838;50.742;7.158;2024-02-26T11:28:37;7.40;99.90
3644;DHT22;1838;50.742;7.158;2024-02-26T11:31:03;7.50;99.90
3644;DHT22;1838;50.742;7.158;2024-02-26T11:33:30;7.50;99.90
3644;DHT22;1838;50.742;7.158;2024-02-26T11:35:56;7.60;99.90
3644;DHT22;1838;50.742;7.158;2024-02-26T11:38:23;7.50;99.90
3644;DHT22;1838;50.742;7.158;2024-02-26T11:40:50;7.60;99.90
3644;DHT22;1838;50.742;7.158;2024-02-26T11:43:15;7.60;99.90
3644;DHT22;1838;50.742;7.158;2024-02-26T11:48:21;7.60;99.90
3644;DHT22;1838;50.742;7.158;2024-02-26T11:50:52;7.60;99.90
3644;DHT22;1838;50.742;7.158;2024-02-26T11:53:23;7.60;99.90
3644;DHT22;1838;50.742;7.158;2024-02-26T11:58:44;7.60;99.90
3644;DHT22;1838;50.742;7.158;2024-02-26T12:01:47;7.60;99.90
3644;DHT22;1838;50.742;7.158;2024-02-26T12:06:51;7.60;99.90
3644;DHT22;1838;50.742;7.158;2024-02-26T12:09:43;7.60;99.90
3644;DHT22;1838;50.742;7.158;2024-02-26T12:12:10;7.60;99.90
3644;DHT22;1838;50.742;7.158;2024-02-26T12:14:52;7.60;99.90
3644;DHT22;1838;50.742;7.158;2024-02-26T12:17:23;7.60;99.90
3644;DHT22;1838;50.742;7.158;2024-02-26T12:19:49;7.70;99.90
3644;DHT22;1838;50.742;7.158;2024-02-26T12:22:16;7.70;99.90
3644;DHT22;1838;50.742;7.158;2024-02-26T12:24:42;7.80;99.90
3644;DHT22;1838;50.742;7.158;2024-02-26T12:27:08;7.80;99.90
3644;DHT22;1838;50.742;7.158;2024-02-26T12:29:33;7.80;99.90
3644;DHT22;1838;50.742;7.158;2024-02-26T12:31:59;7.80;99.90
3644;DHT22;1838;50.742;7.158;2024-02-26T12:34:25;7.80;99.90
3644;DHT22;1838;50.742;7.158;2024-02-26T12:36:52;7.70;99.90
3644;DHT22;1838;50.742;7.158;2024-02-26T12:39:19;7.80;99.90
3644;DHT22;1838;50.742;7.158;2024-02-26T12:41:46;7.80;99.90
3644;DHT22;1838;50.742;7.158;2024-02-26T12:44:16;7.80;99.90
3644;DHT22;1838;50.742;7.158;2024-02-26T12:46:41;7.80;99.90
3644;DHT22;1838;50.742;7.158;2024-02-26T12:49:07;7.80;99.90
3644;DHT22;1838;50.742;7.158;2024-02-26T12:51:33;7.80;99.90
3644;DHT22;1838;50.742;7.158;2024-02-26T12:53:59;7.80;99.90
3644;DHT22;1838;50.742;7.158;2024-02-26T12:56:26;7.80;99.90
3644;DHT22;1838;50.742;7.158;2024-02-26T12:58:52;7.80;99.90
3644;DHT22;1838;50.742;7.158;2024-02-26T13:01:23;7.90;99.90
3644;DHT22;1838;50.742;7.158;2024-02-26T13:03:50;7.90;99.90
3644;DHT22;1838;50.742;7.158;2024-02-26T13:06:17;7.90;99.90
3644;DHT22;1838;50.742;7.158;2024-02-26T13:08:43;7.80;99.90
3644;DHT22;1838;50.742;7.158;2024-02-26T13:11:09;7.90;99.90
3644;DHT22;1838;50.742;7.158;2024-02-26T13:13:35;7.90;99.90
3644;DHT22;1838;50.742;7.158;2024-02-26T13:16:04;7.90;99.90
3644;DHT22;1838;50.742;7.158;2024-02-26T13:18:30;7.90;99.90
3644;DHT22;1838;50.742;7.158;2024-02-26T13:21:15;8.00;99.90
3644;DHT22;1838;50.742;7.158;2024-02-26T13:23:41;7.90;99.90
3644;DHT22;1838;50.742;7.158;2024-02-26T13:26:08;7.90;99.90
3644;DHT22;1838;50.742;7.158;2024-02-26T13:28:37;7.90;99.90
3644;DHT22;1838;50.742;7.158;2024-02-26T13:31:02;7.90;99.90
3644;DHT22;1838;50.742;7.158;2024-02-26T13:33:31;7.90;99.90
3644;DHT22;1838;50.742;7.158;2024-02-26T13:35:58;7.90;99.90
3644;DHT22;1838;50.742;7.158;2024-02-26T13:38:24;7.90;99.90
3644;DHT22;1838;50.742;7.158;2024-02-26T13:40:50;7.90;99.90
3644;DHT22;1838;50.742;7.158;2024-02-26T13:43:16;7.90;99.90
3644;DHT22;1838;50.742;7.158;2024-02-26T13:45:42;7.80;99.90
3644;DHT22;1838;50.742;7.158;2024-02-26T13:48:09;7.80;99.90
3644;DHT22;1838;50.742;7.158;2024-02-26T13:50:39;7.80;99.90
3644;DHT22;1838;50.742;7.158;2024-02-26T13:53:04;7.90;99.90
3644;DHT22;1838;50.742;7.158;2024-02-26T13:55:31;7.90;99.90
3644;DHT22;1838;50.742;7.158;2024-02-26T13:57:58;7.90;99.90
3644;DHT22;1838;50.742;7.158;2024-02-26T14:00:24;7.90;99.90
3644;DHT22;1838;50.742;7.158;2024-02-26T14:02:52;7.90;99.90
3644;DHT22;1838;50.742;7.158;2024-02-26T14:05:17;7.90;99.90
3644;DHT22;1838;50.742;7.158;2024-02-26T14:07:43;7.90;99.90
3644;DHT22;1838;50.742;7.158;2024-02-26T14:10:11;8.00;99.90
3644;DHT22;1838;50.742;7.158;2024-02-26T14:12:38;8.00;99.90
3644;DHT22;1838;50.742;7.158;2024-02-26T14:15:08;8.00;99.90
3644;DHT22;1838;50.742;7.158;2024-02-26T14:17:34;8.10;99.90
3644;DHT22;1838;50.742;7.158;2024-02-26T14:20:00;8.10;99.90
3644;DHT22;1838;50.742;7.158;2024-02-26T14:22:25;8.10;99.90
3644;DHT22;1838;50.742;7.158;2024-02-26T14:24:52;8.10;99.90
3644;DHT22;1838;50.742;7.158;2024-02-26T14:27:18;8.20;99.90
3644;DHT22;1838;50.742;7.158;2024-02-26T14:29:46;8.20;99.90
3644;DHT22;1838;50.742;7.158;2024-02-26T14:32:12;8.20;99.90
3644;DHT22;1838;50.742;7.158;2024-02-26T14:34:38;8.20;99.90
3644;DHT22;1838;50.742;7.158;2024-02-26T14:37:03;8.30;99.90
3644;DHT22;1838;50.742;7.158;2024-02-26T14:39:31;8.30;99.90
3644;DHT22;1838;50.742;7.158;2024-02-26T14:41:57;8.30;99.90
3644;DHT22;1838;50.742;7.158;2024-02-26T14:44:23;8.30;99.90
3644;DHT22;1838;50.742;7.158;2024-02-26T14:46:49;8.30;99.90
3644;DHT22;1838;50.742;7.158;2024-02-26T14:49:15;8.40;99.90
3644;DHT22;1838;50.742;7.158;2024-02-26T14:51:41;8.30;99.90
3644;DHT22;1838;50.742;7.158;2024-02-26T14:54:06;8.30;99.90
3644;DHT22;1838;50.742;7.158;2024-02-26T14:56:32;8.30;99.90
3644;DHT22;1838;50.742;7.158;2024-02-26T14:58:57;8.40;99.90
3644;DHT22;1838;50.742;7.158;2024-02-26T15:01:23;8.30;99.90
3644;DHT22;1838;50.742;7.158;2024-02-26T15:03:49;8.40;99.90
3644;DHT22;1838;50.742;7.158;2024-02-26T15:06:15;8.40;99.90
3644;DHT22;1838;50.742;7.158;2024-02-26T15:08:40;8.40;99.90
3644;DHT22;1838;50.742;7.158;2024-02-26T15:11:06;8.40;99.90
3644;DHT22;1838;50.742;7.158;2024-02-26T15:13:33;8.40;99.90
3644;DHT22;1838;50.742;7.158;2024-02-26T15:15:58;8.40;99.90
3644;DHT22;1838;50.742;7.158;2024-02-26T15:18:24;8.40;99.90
3644;DHT22;1838;50.742;7.158;2024-02-26T15:20:51;8.40;99.90
3644;DHT22;1838;50.742;7.158;2024-02-26T15:23:16;8.40;99.90
3644;DHT22;1838;50.742;7.158;2024-02-26T15:25:43;8.40;99.90
3644;DHT22;1838;50.742;7.158;2024-02-26T15:28:08;8.50;99.90
3644;DHT22;1838;50.742;7.158;2024-02-26T15:30:36;8.50;99.90
3644;DHT22;1838;50.742;7.158;2024-02-26T15:33:02;8.50;99.90
3644;DHT22;1838;50.742;7.158;2024-02-26T15:35:28;8.50;99.90
3644;DHT22;1838;50.742;7.158;2024-02-26T15:37:53;8.50;99.90
3644;DHT22;1838;50.742;7.158;2024-02-26T15:40:19;8.50;99.90
3644;DHT22;1838;50.742;7.158;2024-02-26T15:42:46;8.50;99.90
3644;DHT22;1838;50.742;7.158;2024-02-26T15:45:11;8.60;99.90
3644;DHT22;1838;50.742;7.158;2024-02-26T15:47:37;8.60;99.90
3644;DHT22;1838;50.742;7.158;2024-02-26T15:50:03;8.60;99.90
3644;DHT22;1838;50.742;7.158;2024-02-26T15:52:29;8.60;99.90
3644;DHT22;1838;50.742;7.158;2024-02-26T15:54:55;8.70;99.90
3644;DHT22;1838;50.742;7.158;2024-02-26T15:57:21;8.70;99.90
3644;DHT22;1838;50.742;7.158;2024-02-26T15:59:47;8.70;99.90
3644;DHT22;1838;50.742;7.158;2024-02-26T16:02:18;8.70;99.90
3644;DHT22;1838;50.742;7.158;2024-02-26T16:04:43;8.70;99.90
3644;DHT22;1838;50.742;7.158;2024-02-26T16:07:19;8.70;99.90
3644;DHT22;1838;50.742;7.158;2024-02-26T16:09:53;8.70;99.90
3644;DHT22;1838;50.742;7.158;2024-02-26T16:12:37;8.70;99.90
3644;DHT22;1838;50.742;7.158;2024-02-26T16:15:04;8.80;99.90
3644;DHT22;1838;50.742;7.158;2024-02-26T16:17:36;8.80;99.90
3644;DHT22;1838;50.742;7.158;2024-02-26T16:20:02;8.90;99.90